createdAt,value
2022-12-15T00:02:04.122Z,99560.66
2022-12-15T00:04:35.880Z,99551.72
2022-12-15T00:07:02.873Z,99548.63
2022-12-15T00:09:33.712Z,99546.78
2022-12-15T00:12:03.729Z,99546.91
2022-12-15T00:14:37.097Z,99557.56
2022-12-15T00:17:05.004Z,99564.56
2022-12-15T00:19:38.077Z,99571.75
2022-12-15T00:22:05.752Z,99568.78
2022-12-15T00:24:33.677Z,99569.59
2022-12-15T00:27:01.316Z,99572.22
2022-12-15T00:29:31.536Z,99559.25
2022-12-15T00:31:59.153Z,99561.56
2022-12-15T00:34:29.518Z,99567.75
2022-12-15T00:36:57.070Z,99579.22
2022-12-15T00:39:28.236Z,99574.63
2022-12-15T00:41:59.204Z,99573.47
2022-12-15T00:44:26.903Z,99578.03
2022-12-15T00:46:54.640Z,99574.75
2022-12-15T00:49:30.050Z,99562.50
2022-12-15T00:51:57.519Z,99568.19
2022-12-15T00:54:33.210Z,99560.66
2022-12-15T00:57:00.909Z,99560.63
2022-12-15T00:59:37.994Z,99548.00
2022-12-15T01:02:11.051Z,99552.50
2022-12-15T01:04:40.921Z,99551.44
2022-12-15T01:07:11.312Z,99541.94
2022-12-15T01:09:41.606Z,99547.09
2022-12-15T01:12:12.487Z,99547.66
2022-12-15T01:14:43.567Z,99536.06
2022-12-15T01:17:17.227Z,99542.03
2022-12-15T01:19:44.347Z,99554.28
2022-12-15T01:22:11.633Z,99546.81
2022-12-15T01:24:38.915Z,99552.13
2022-12-15T01:27:10.572Z,99565.56
2022-12-15T01:29:43.463Z,99558.31
2022-12-15T01:32:11.609Z,99549.44
2022-12-15T01:34:38.910Z,99555.34
2022-12-15T01:37:09.939Z,99542.03
2022-12-15T01:39:39.799Z,99545.38
2022-12-15T01:42:13.318Z,99547.25
2022-12-15T01:44:40.546Z,99558.75
2022-12-15T01:47:16.887Z,99570.16
2022-12-15T01:49:44.192Z,99574.31
2022-12-15T01:52:11.630Z,99580.16
2022-12-15T01:54:51.803Z,99593.25
2022-12-15T01:57:28.951Z,99593.94
2022-12-15T02:00:03.148Z,99590.53
2022-12-15T02:02:35.641Z,99588.91
2022-12-15T02:05:13.893Z,99592.81
2022-12-15T02:07:49.870Z,99591.41
2022-12-15T02:10:20.925Z,99596.25
2022-12-15T02:12:56.989Z,99597.41
2022-12-15T02:15:47.444Z,99589.59
2022-12-15T02:18:42.808Z,99581.94
2022-12-15T02:21:38.262Z,99593.38
2022-12-15T02:24:43.143Z,99588.72
2022-12-15T02:27:48.459Z,99590.75
2022-12-15T02:30:56.629Z,99589.16
2022-12-15T02:33:35.343Z,99577.47
2022-12-15T02:36:25.933Z,99566.69
2022-12-15T02:38:59.268Z,99561.47
2022-12-15T02:41:38.558Z,99572.16
2022-12-15T02:44:29.951Z,99578.72
2022-12-15T02:47:02.948Z,99571.56
2022-12-15T02:49:55.870Z,99575.94
2022-12-15T02:52:53.914Z,99589.03
2022-12-15T02:55:33.316Z,99597.06
2022-12-15T02:58:25.105Z,99600.50
2022-12-15T03:01:12.110Z,99585.16
2022-12-15T03:03:49.581Z,99585.13
2022-12-15T03:06:17.178Z,99593.28
2022-12-15T03:08:49.811Z,99599.84
2022-12-15T03:11:16.985Z,99601.53
2022-12-15T03:13:51.011Z,99610.13
2022-12-15T03:16:21.561Z,99615.66
2022-12-15T03:18:54.775Z,99598.78
2022-12-15T03:21:22.344Z,99614.81
2022-12-15T03:23:55.457Z,99612.66
2022-12-15T03:26:27.719Z,99616.34
2022-12-15T03:29:00.951Z,99606.34
2022-12-15T03:31:34.648Z,99618.75
2022-12-15T03:34:04.709Z,99630.75
2022-12-15T03:36:32.303Z,99623.00
2022-12-15T03:38:59.902Z,99626.88
2022-12-15T03:41:27.529Z,99639.84
2022-12-15T03:43:59.154Z,99646.47
2022-12-15T03:46:29.534Z,99636.97
2022-12-15T03:49:03.343Z,99631.47
2022-12-15T03:51:33.681Z,99612.31
2022-12-15T03:54:06.334Z,99609.66
2022-12-15T03:56:36.764Z,99615.31
2022-12-15T03:59:18.111Z,99612.09
2022-12-15T04:01:54.408Z,99619.19
2022-12-15T04:04:22.144Z,99624.56
2022-12-15T04:06:55.622Z,99629.28
2022-12-15T04:09:25.778Z,99630.31
2022-12-15T04:11:56.053Z,99622.31
2022-12-15T04:14:32.436Z,99619.41
2022-12-15T04:17:02.423Z,99616.22
2022-12-15T04:19:32.510Z,99603.91
2022-12-15T04:21:59.889Z,99601.81
2022-12-15T04:24:32.739Z,99610.44
2022-12-15T04:27:02.840Z,99620.91
2022-12-15T04:29:30.046Z,99633.16
2022-12-15T04:32:06.907Z,99622.34
2022-12-15T04:34:38.173Z,99631.22
2022-12-15T04:37:14.675Z,99645.69
2022-12-15T04:39:49.507Z,99645.94
2022-12-15T04:42:16.754Z,99646.25
2022-12-15T04:44:58.487Z,99652.38
2022-12-15T04:47:29.294Z,99665.13
2022-12-15T04:50:00.341Z,99684.50
2022-12-15T04:52:30.866Z,99710.22
2022-12-15T04:55:04.507Z,99717.97
2022-12-15T04:57:35.391Z,99728.50
2022-12-15T05:00:11.411Z,99739.31
2022-12-15T05:02:42.671Z,99737.72
2022-12-15T05:05:09.852Z,99741.41
2022-12-15T05:07:43.557Z,99730.16
2022-12-15T05:10:15.175Z,99724.88
2022-12-15T05:12:43.867Z,99716.28
2022-12-15T05:15:14.209Z,99697.59
2022-12-15T05:17:45.230Z,99706.75
2022-12-15T05:20:16.038Z,99699.91
2022-12-15T05:22:52.252Z,99694.97
2022-12-15T05:25:25.309Z,99693.13
2022-12-15T05:27:57.562Z,99689.13
2022-12-15T05:30:27.908Z,99682.00
2022-12-15T05:33:03.525Z,99682.69
2022-12-15T05:35:36.523Z,99693.00
2022-12-15T05:38:10.082Z,99694.03
2022-12-15T05:40:40.723Z,99707.56
2022-12-15T05:43:13.902Z,99716.38
2022-12-15T05:45:44.559Z,99714.66
2022-12-15T05:48:12.177Z,99707.00
2022-12-15T05:50:40.172Z,99713.66
2022-12-15T05:53:13.065Z,99714.78
2022-12-15T05:55:43.161Z,99725.59
2022-12-15T05:58:10.852Z,99729.38
2022-12-15T06:00:43.918Z,99737.28
2022-12-15T06:03:14.923Z,99745.78
2022-12-15T06:05:54.703Z,99762.72
2022-12-15T06:08:52.768Z,99753.81
2022-12-15T06:11:39.213Z,99768.81
2022-12-15T06:14:12.150Z,99766.53
2022-12-15T06:16:50.858Z,99769.19
2022-12-15T06:19:19.398Z,99771.94
2022-12-15T06:21:52.035Z,99773.97
2022-12-15T06:24:19.840Z,99776.50
2022-12-15T06:26:56.724Z,99791.41
2022-12-15T06:29:34.872Z,99810.63
2022-12-15T06:32:06.595Z,99812.16
2022-12-15T06:34:42.909Z,99819.16
2022-12-15T06:37:14.511Z,99824.91
2022-12-15T06:39:44.796Z,99826.06
2022-12-15T06:42:15.049Z,99826.97
2022-12-15T06:44:49.971Z,99820.31
2022-12-15T06:47:21.069Z,99821.38
2022-12-15T06:49:54.648Z,99830.88
2022-12-15T06:52:25.449Z,99823.97
2022-12-15T06:54:55.747Z,99829.00
2022-12-15T06:57:25.531Z,99828.44
2022-12-15T06:59:55.962Z,99819.84
2022-12-15T07:02:32.511Z,99829.28
2022-12-15T07:05:03.171Z,99834.88
2022-12-15T07:07:34.601Z,99834.22
2022-12-15T07:10:09.085Z,99832.63
2022-12-15T07:12:46.449Z,99841.88
2022-12-15T07:15:17.924Z,99850.06
2022-12-15T07:17:55.148Z,99861.53
2022-12-15T07:20:28.758Z,99853.41
2022-12-15T07:22:59.992Z,99864.88
2022-12-15T07:25:36.479Z,99855.09
2022-12-15T07:28:07.173Z,99853.25
2022-12-15T07:30:40.941Z,99854.66
2022-12-15T07:33:10.873Z,99854.66
2022-12-15T07:35:52.085Z,99855.66
2022-12-15T07:38:22.481Z,99861.78
2022-12-15T07:40:55.816Z,99858.47
2022-12-15T07:43:29.396Z,99873.13
2022-12-15T07:46:00.245Z,99879.22
2022-12-15T07:48:33.396Z,99890.69
2022-12-15T07:51:10.978Z,99882.78
2022-12-15T07:53:52.585Z,99891.50
2022-12-15T07:56:22.868Z,99891.72
2022-12-15T07:58:54.037Z,99904.63
2022-12-15T08:01:26.707Z,99901.81
2022-12-15T08:03:56.864Z,99910.78
2022-12-15T08:06:28.020Z,99913.69
2022-12-15T08:08:59.517Z,99911.50
2022-12-15T08:11:33.210Z,99912.88
2022-12-15T08:14:04.966Z,99920.31
2022-12-15T08:16:37.719Z,99931.03
2022-12-15T08:19:14.991Z,99931.69
2022-12-15T08:21:43.315Z,99935.84
2022-12-15T08:24:15.015Z,99936.66
2022-12-15T08:26:50.164Z,99940.19
2022-12-15T08:29:50.107Z,99943.66
2022-12-15T08:32:16.274Z,99947.22
2022-12-15T08:34:46.824Z,99946.19
2022-12-15T08:37:20.557Z,99950.53
2022-12-15T08:39:53.636Z,99951.25
2022-12-15T08:42:24.668Z,99956.63
2022-12-15T08:45:00.556Z,99961.56
2022-12-15T08:47:30.750Z,99961.56
2022-12-15T08:50:04.095Z,99963.41
2022-12-15T08:52:35.190Z,99963.84
2022-12-15T08:55:03.402Z,99964.09
2022-12-15T08:57:31.531Z,99962.34
2022-12-15T09:00:01.749Z,99964.66
2022-12-15T09:02:29.296Z,99957.56
2022-12-15T09:05:10.237Z,99956.41
2022-12-15T09:07:40.720Z,99954.22
2022-12-15T09:10:13.789Z,99953.88
2022-12-15T09:12:43.973Z,99945.13
2022-12-15T09:15:14.891Z,99939.97
2022-12-15T09:17:45.549Z,99940.53
2022-12-15T09:20:17.687Z,99940.66
2022-12-15T09:22:47.588Z,99954.22
2022-12-15T09:25:23.810Z,99948.00
2022-12-15T09:27:59.191Z,99937.88
2022-12-15T09:30:33.124Z,99946.03
2022-12-15T09:33:06.064Z,99952.72
2022-12-15T09:35:38.083Z,99952.94
2022-12-15T09:38:09.168Z,99943.50
2022-12-15T09:40:39.809Z,99953.16
2022-12-15T09:43:34.043Z,99946.50
2022-12-15T09:46:24.205Z,99952.13
2022-12-15T09:49:01.875Z,99940.91
2022-12-15T09:52:04.591Z,99946.44
2022-12-15T09:54:38.880Z,99938.88
2022-12-15T09:57:24.151Z,99951.59
2022-12-15T10:00:06.818Z,99941.97
2022-12-15T10:02:58.648Z,99941.25
2022-12-15T10:06:07.210Z,99938.81
2022-12-15T10:08:36.201Z,99935.91
2022-12-15T10:11:29.813Z,99937.25
2022-12-15T10:14:21.609Z,99927.63
2022-12-15T10:17:17.414Z,99932.50
2022-12-15T10:20:05.844Z,99933.75
2022-12-15T10:22:38.111Z,99935.84
2022-12-15T10:25:20.951Z,99935.06
2022-12-15T10:28:13.868Z,99936.38
2022-12-15T10:30:51.150Z,99936.16
2022-12-15T10:33:22.964Z,99945.63
2022-12-15T10:35:56.646Z,99951.25
2022-12-15T10:38:35.173Z,99945.72
2022-12-15T10:41:11.967Z,99940.06
2022-12-15T10:43:47.555Z,99934.69
2022-12-15T10:46:20.702Z,99938.81
2022-12-15T10:48:59.359Z,99961.44
2022-12-15T10:51:59.029Z,99954.84
2022-12-15T10:54:44.402Z,99946.53
2022-12-15T10:57:21.505Z,99949.63
2022-12-15T10:59:50.413Z,99958.94
2022-12-15T11:02:23.905Z,99959.41
2022-12-15T11:05:18.135Z,99956.31
2022-12-15T11:08:15.393Z,99949.50
2022-12-15T11:10:57.898Z,99944.69
2022-12-15T11:16:24.039Z,99943.34
2022-12-15T11:18:58.582Z,99938.00
2022-12-15T11:21:35.163Z,99932.31
2022-12-15T11:24:33.466Z,99930.78
2022-12-15T11:27:18.667Z,99923.81
2022-12-15T11:29:57.497Z,99935.06
2022-12-15T11:32:32.810Z,99938.88
2022-12-15T11:35:06.382Z,99939.06
2022-12-15T11:37:45.234Z,99938.25
2022-12-15T11:40:31.120Z,99941.16
2022-12-15T11:43:27.407Z,99941.28
2022-12-15T11:46:04.413Z,99936.53
2022-12-15T11:48:49.767Z,99936.97
2022-12-15T11:51:36.563Z,99936.53
2022-12-15T11:54:27.778Z,99936.44
2022-12-15T11:57:32.465Z,99928.59
2022-12-15T12:00:14.221Z,99930.66
2022-12-15T12:02:49.953Z,99920.25
2022-12-15T12:05:32.004Z,99917.03
2022-12-15T12:08:25.941Z,99920.22
2022-12-15T12:11:12.145Z,99920.00
2022-12-15T12:13:52.046Z,99921.69
2022-12-15T12:16:43.221Z,99917.47
2022-12-15T12:19:24.173Z,99931.81
2022-12-15T12:22:00.580Z,99936.16
2022-12-15T12:24:40.981Z,99945.94
2022-12-15T12:27:23.127Z,99966.97
2022-12-15T12:29:56.102Z,99971.97
2022-12-15T12:32:42.473Z,99971.47
2022-12-15T12:35:31.859Z,99981.09
2022-12-15T12:38:14.335Z,99994.03
2022-12-15T12:41:00.126Z,99999.53
2022-12-15T12:43:39.471Z,100001.69
2022-12-15T12:46:25.002Z,99999.53
2022-12-15T12:49:26.395Z,100002.19
2022-12-15T12:51:59.673Z,100003.22
2022-12-15T12:54:32.811Z,100010.38
2022-12-15T12:57:23.643Z,100010.13
2022-12-15T13:00:05.619Z,100012.88
2022-12-15T13:02:38.884Z,100007.50
2022-12-15T13:05:35.642Z,99998.19
2022-12-15T13:08:06.099Z,99999.63
2022-12-15T13:10:50.652Z,99996.13
2022-12-15T13:13:32.043Z,99994.84
2022-12-15T13:16:18.174Z,100003.38
2022-12-15T13:19:05.480Z,100015.19
2022-12-15T13:21:41.418Z,100016.34
2022-12-15T13:24:42.113Z,100014.75
2022-12-15T13:27:20.332Z,100011.03
2022-12-15T13:30:12.360Z,100004.56
2022-12-15T13:32:55.141Z,100027.44
2022-12-15T13:35:28.383Z,100040.69
2022-12-15T13:38:01.091Z,100046.09
2022-12-15T13:40:30.256Z,100046.81
2022-12-15T13:43:06.512Z,100033.13
2022-12-15T13:45:44.499Z,100031.53
2022-12-15T13:48:31.333Z,100031.78
2022-12-15T13:51:23.668Z,100032.56
2022-12-15T13:53:59.835Z,100006.50
2022-12-15T13:56:32.620Z,100013.63
2022-12-15T13:59:08.571Z,100026.34
2022-12-15T14:01:36.443Z,100030.03
2022-12-15T14:04:13.875Z,100042.91
2022-12-15T14:07:10.583Z,100033.47
2022-12-15T14:09:43.748Z,100039.25
2022-12-15T14:12:13.846Z,100056.13
2022-12-15T14:14:50.257Z,100058.28
2022-12-15T14:17:23.309Z,100063.03
2022-12-15T14:19:58.262Z,100064.16
2022-12-15T14:22:35.007Z,100057.38
2022-12-15T14:25:22.272Z,100056.72
2022-12-15T14:27:50.812Z,100065.44
2022-12-15T14:30:31.158Z,100055.78
2022-12-15T14:33:14.172Z,100069.69
2022-12-15T14:35:56.081Z,100065.66
2022-12-15T14:38:39.662Z,100067.50
2022-12-15T14:41:21.929Z,100079.19
2022-12-15T14:44:31.828Z,100065.75
2022-12-15T14:46:55.716Z,100059.91
2022-12-15T14:49:31.090Z,100062.22
2022-12-15T14:52:06.223Z,100066.09
2022-12-15T14:54:53.253Z,100067.00
2022-12-15T14:57:41.186Z,100068.06
2022-12-15T15:00:34.053Z,100069.81
2022-12-15T15:03:09.090Z,99948.06
2022-12-15T15:03:18.898Z,100072.41
2022-12-15T15:05:48.161Z,100079.44
2022-12-15T15:08:26.392Z,100074.63
2022-12-15T15:11:35.160Z,100086.31
2022-12-15T15:14:12.681Z,100093.66
2022-12-15T15:16:43.884Z,100092.78
2022-12-15T15:19:23.614Z,100100.47
2022-12-15T15:21:59.294Z,100094.75
2022-12-15T15:24:39.407Z,100102.66
2022-12-15T15:27:27.233Z,100116.34
2022-12-15T15:30:17.245Z,100118.94
2022-12-15T15:32:51.290Z,100127.44
2022-12-15T15:35:30.090Z,100124.34
2022-12-15T15:38:25.684Z,100126.03
2022-12-15T15:40:56.645Z,100118.69
2022-12-15T15:43:28.016Z,100119.94
2022-12-15T15:46:11.905Z,100114.22
2022-12-15T15:48:46.426Z,100119.84
2022-12-15T15:51:23.432Z,100123.53
2022-12-15T15:54:07.761Z,100122.25
2022-12-15T15:56:40.339Z,100135.25
2022-12-15T15:59:22.077Z,100128.56
2022-12-15T16:01:53.357Z,100117.78
2022-12-15T16:04:30.685Z,100126.75
2022-12-15T16:07:02.130Z,100124.31
2022-12-15T16:09:41.544Z,100129.88
2022-12-15T16:12:40.458Z,100130.53
2022-12-15T16:15:38.164Z,100125.78
2022-12-15T16:18:08.740Z,100125.75
2022-12-15T16:20:50.031Z,100129.06
2022-12-15T16:23:29.377Z,100146.31
2022-12-15T16:26:00.631Z,100143.03
2022-12-15T16:28:31.515Z,100156.28
2022-12-15T16:31:10.955Z,100159.97
2022-12-15T16:33:42.005Z,100175.53
2022-12-15T16:36:19.269Z,100173.09
2022-12-15T16:38:53.321Z,100179.75
2022-12-15T16:41:31.132Z,100178.63
2022-12-15T16:44:06.379Z,100174.22
2022-12-15T16:46:46.784Z,100167.88
2022-12-15T16:49:27.178Z,100174.81
2022-12-15T16:52:09.006Z,100171.41
2022-12-15T16:54:50.351Z,100182.78
2022-12-15T16:57:24.133Z,100184.00
2022-12-15T17:00:02.170Z,100184.31
2022-12-15T17:02:37.639Z,100180.53
2022-12-15T17:05:14.319Z,100173.72
2022-12-15T17:08:14.077Z,100162.28
2022-12-15T17:10:45.960Z,100165.44
2022-12-15T17:13:45.349Z,100167.19
2022-12-15T17:16:21.536Z,100179.44
2022-12-15T17:19:05.670Z,100173.50
2022-12-15T17:21:48.096Z,100169.09
2022-12-15T17:24:28.820Z,100173.34
2022-12-15T17:27:06.453Z,100165.69
2022-12-15T17:29:37.073Z,100165.78
2022-12-15T17:32:11.257Z,100169.34
2022-12-15T17:34:41.785Z,100166.19
2022-12-15T17:37:17.493Z,100158.78
2022-12-15T17:39:51.101Z,100154.88
2022-12-15T17:42:21.873Z,100166.19
2022-12-15T17:44:53.060Z,100175.72
2022-12-15T17:47:24.379Z,100180.84
2022-12-15T17:50:04.443Z,100200.72
2022-12-15T17:52:37.901Z,100204.97
2022-12-15T17:55:34.813Z,100204.16
2022-12-15T17:58:02.992Z,100199.53
2022-12-15T18:00:49.042Z,100196.47
2022-12-15T18:03:21.664Z,100197.09
2022-12-15T18:05:54.046Z,100205.59
2022-12-15T18:08:28.890Z,100210.13
2022-12-15T18:11:01.250Z,100220.59
2022-12-15T18:13:35.543Z,100233.22
2022-12-15T18:16:16.413Z,100229.88
2022-12-15T18:19:04.691Z,100239.38
2022-12-15T18:21:41.235Z,100254.78
2022-12-15T18:24:22.014Z,100247.94
2022-12-15T18:26:54.173Z,100243.91
2022-12-15T18:29:36.444Z,100229.53
2022-12-15T18:35:21.527Z,100234.09
2022-12-15T18:37:53.441Z,100247.13
2022-12-15T18:40:30.425Z,100245.34
2022-12-15T18:43:03.933Z,100256.28
2022-12-15T18:45:39.926Z,100268.34
2022-12-15T18:48:23.322Z,100253.75
2022-12-15T18:50:53.682Z,100255.53
2022-12-15T18:53:32.397Z,100260.63
2022-12-15T18:56:17.314Z,100253.44
2022-12-15T18:58:48.162Z,100251.03
2022-12-15T19:01:27.944Z,100245.28
2022-12-15T19:04:00.622Z,100237.28
2022-12-15T19:06:35.137Z,100244.72
2022-12-15T19:09:21.638Z,100246.81
2022-12-15T19:11:56.054Z,100264.06
2022-12-15T19:14:27.184Z,100252.09
2022-12-15T19:17:01.271Z,100250.41
2022-12-15T19:19:33.137Z,100260.09
2022-12-15T19:22:12.211Z,100262.31
2022-12-15T19:24:52.260Z,100264.41
2022-12-15T19:27:31.302Z,100265.38
2022-12-15T19:30:21.396Z,100274.53
2022-12-15T19:32:58.127Z,100263.94
2022-12-15T19:35:35.058Z,100258.69
2022-12-15T19:38:07.966Z,100259.50
2022-12-15T19:40:46.861Z,100253.69
2022-12-15T19:43:20.762Z,100246.81
2022-12-15T19:45:51.796Z,100243.13
2022-12-15T19:48:25.694Z,100248.19
2022-12-15T19:51:06.711Z,100249.13
2022-12-15T19:53:45.498Z,100254.72
2022-12-15T19:56:23.695Z,100245.56
2022-12-15T19:59:03.408Z,100235.81
2022-12-15T20:01:35.086Z,100239.94
2022-12-15T20:04:17.336Z,100237.75
2022-12-15T20:06:56.367Z,100249.13
2022-12-15T20:09:29.322Z,100254.56
2022-12-15T20:12:06.584Z,100263.63
2022-12-15T20:14:40.425Z,100258.97
2022-12-15T20:17:22.070Z,100263.16
2022-12-15T20:19:52.315Z,100258.34
2022-12-15T20:22:27.578Z,100247.88
2022-12-15T20:25:03.392Z,100234.50
2022-12-15T20:27:39.579Z,100234.19
2022-12-15T20:30:33.835Z,100225.84
2022-12-15T20:33:06.147Z,100216.78
2022-12-15T20:35:42.835Z,100212.09
2022-12-15T20:38:16.565Z,100210.16
2022-12-15T20:40:55.654Z,100199.22
2022-12-15T20:43:30.837Z,100207.75
2022-12-15T20:46:19.792Z,100211.72
2022-12-15T20:48:52.954Z,100218.63
2022-12-15T20:51:31.319Z,100227.91
2022-12-15T20:54:07.143Z,100235.03
2022-12-15T20:56:42.553Z,100217.56
2022-12-15T20:59:10.795Z,100220.94
2022-12-15T21:01:41.858Z,100224.84
2022-12-15T21:04:25.754Z,100223.25
2022-12-15T21:06:55.332Z,100233.91
2022-12-15T21:09:25.992Z,100228.94
2022-12-15T21:11:56.483Z,100227.31
2022-12-15T21:14:28.245Z,100223.66
2022-12-15T21:16:59.299Z,100225.13
2022-12-15T21:19:34.104Z,100209.19
2022-12-15T21:22:05.508Z,100215.13
2022-12-15T21:24:40.825Z,100226.03
2022-12-15T21:27:15.955Z,100227.31
2022-12-15T21:29:53.145Z,100231.28
2022-12-15T21:32:28.314Z,100240.94
2022-12-15T21:35:01.560Z,100230.16
2022-12-15T21:37:39.364Z,100230.91
2022-12-15T21:40:08.644Z,100226.50
2022-12-15T21:42:45.495Z,100221.34
2022-12-15T21:45:14.604Z,100228.88
2022-12-15T21:47:52.424Z,100233.66
2022-12-15T21:50:26.440Z,100222.59
2022-12-15T21:52:57.098Z,100231.75
2022-12-15T21:55:32.523Z,100228.19
2022-12-15T21:58:00.540Z,100239.63
2022-12-15T22:00:31.089Z,100231.09
2022-12-15T22:03:03.095Z,100243.00
2022-12-15T22:05:31.089Z,100230.53
2022-12-15T22:08:20.635Z,100231.41
2022-12-15T22:10:57.632Z,100238.31
2022-12-15T22:13:28.281Z,100223.59
2022-12-15T22:16:00.754Z,100217.63
2022-12-15T22:18:35.028Z,100209.25
2022-12-15T22:21:05.675Z,100210.06
2022-12-15T22:23:36.360Z,100212.44
2022-12-15T22:26:06.807Z,100217.31
2022-12-15T22:28:40.745Z,100206.22
2022-12-15T22:31:16.366Z,100205.53
2022-12-15T22:33:47.143Z,100193.34
2022-12-15T22:36:14.813Z,100202.97
2022-12-15T22:38:53.891Z,100208.94
2022-12-15T22:41:23.890Z,100208.88
2022-12-15T22:43:57.536Z,100208.72
2022-12-15T22:46:33.440Z,100193.34
2022-12-15T22:49:14.050Z,100193.78
2022-12-15T22:51:45.718Z,100174.44
2022-12-15T22:54:19.878Z,100178.16
2022-12-15T22:57:12.493Z,100172.00
2022-12-15T22:59:54.840Z,100161.03
2022-12-15T23:02:34.081Z,100166.38
2022-12-15T23:05:06.664Z,100164.72
2022-12-15T23:07:39.027Z,100159.31
2022-12-15T23:10:16.757Z,100158.44
2022-12-15T23:12:47.863Z,100152.34
2022-12-15T23:15:21.542Z,100152.72
2022-12-15T23:17:49.068Z,100154.41
2022-12-15T23:20:28.116Z,100156.97
2022-12-15T23:22:59.028Z,100154.78
2022-12-15T23:25:29.187Z,100168.16
2022-12-15T23:27:59.890Z,100172.25
2022-12-15T23:30:33.738Z,100174.31
2022-12-15T23:33:03.487Z,100185.88
2022-12-15T23:35:39.603Z,100180.38
2022-12-15T23:38:10.233Z,100186.53
2022-12-15T23:40:52.550Z,100186.31
2022-12-15T23:43:20.944Z,100192.09
2022-12-15T23:46:01.367Z,100188.25
2022-12-15T23:48:38.011Z,100195.09
2022-12-15T23:51:12.062Z,100194.84
2022-12-15T23:53:51.924Z,100194.41
2022-12-15T23:56:23.010Z,100201.63
2022-12-15T23:59:02.761Z,100204.78
